Aérodrome :
LOGIN :

S'inscrire | Disclaimer

   EN    FR    IT 

 










Légende :    VFR   VFR Marginal   IFR   IFR Intensif   IFR Très Intensif
Visi : 
Plafond : 
>= 8 km
>= 3000ft
5 à 8 km
1000 à 3000 ft
1500m à 5 km
500 à 1000 ft
800 à 1500m
200 à 500 ft
< 800m
< 200 ft
Symboles :   Orages  Brouillard  Fortes neiges  Fortes précipitations  Vent > 20 kt
SIGMETs :   Divers  Orages  Givrage  Turbulence  Onde Orograph.  Cendres Volcan.







- Altitude de l'aérodrome : 160 ft
- Code IATA : FMO


EDDG - Münster Osnabrück Int.

DERNIER METAR :
  • 270320Z 27007KT 9999 FEW010 BKN029 13/12 Q1008 NOSIG

METARs EXPIRÉS :
  • 270250Z 27007KT 9999 -RA SCT008 BKN025 14/12 Q1008 NOSIG
  • 270220Z 24009KT 9999 -RA BKN008 14/13 Q1007 BECMG SCT010
  • 270150Z 23008KT 210V270 8000 -RADZ BKN008 14/13 Q1008 BECMG SCT010
  • 270120Z 24006KT 9000 SCT007 BKN016 14/13 Q1008 REDZ TEMPO 4000 BR BKN007
  • 270050Z 24008KT 3500 DZ BKN008 14/14 Q1008 BECMG 9999 NSW SCT010

TAF TAF EDDG
Valide du 27 à 00h jusqu'au 28 à 00h UTC


262300Z 2700/2724 24013KT 9999 SCT015
BECMG 2700/2703 24008KT BKN008
TEMPO 2700/2703 4000 RA
BECMG 2703/2706 SCT020
PROB30
TEMPO 2706/2708 BKN012
BECMG 2708/2711 26013KT
BECMG 2715/2718 27007KT
BECMG 2718/2721 VRB02KT
Pas de NOTAMs connus pour ce terrain.



MET'MAP, la Météo Aéronautique d'un coup d'oeil ! - Copyright ORBIFLY Décembre 2007 - Disclaimer

ORBIFLY MET'MAP TEAM :

Programmation & Développement : Alexandra Zaïnal
Conception & Développement : Baudouin d'Aumeries
Co-Programmation & Développement : Marc-Olivier Méhu
Soutien technique & logistique : Manuel Goepfert

Contact : metmap@orbifly.com




SOURCES & CREDITS :

   NOAA